Terminal Aerodrome Forecast
Issued by NWS

Home | Current Version | Previous Version | Text Only | Print | Product List | Glossary Off
Versions: 1 2 3 4 5 6 7 8 9 10 11 12 13 14 15 16 17 18 19

000
FTUS43 KGRB 200939 AAC
TAFATW
TAF AMD
KATW 200939Z 2010/2106 02008KT P6SM SCT012 OVC035
      TEMPO 2010/2013 4SM -SHRA BKN012
     FM201500 02009G18KT P6SM SCT035 BKN110
     FM201800 05008G17KT P6SM SCT200
     FM202200 06006KT P6SM SCT250=

USA.gov is the U.S. government's official web portal to all federal, state and local government web resources and services.